Time;durP1;ratioP1;P1;durP2;ratioP2;P2;SDS_P1;SDS_P2;PMS_P1;PMS_P2;Temp;Humidity;BMP_temperature;BMP_pressure;BME280_temperature;BME280_humidity;BME280_pressure;Samples;Min_cycle;Max_cycle;Signal;HPM_P1;HPM_P2
2021/09/05 00:01:52;;;;;;;30.27;12.60;;;11.90;92.40;;;;;;5053700;28;20188;-85
2021/09/05 00:04:18;;;;;;;23.33;12.50;;;11.80;92.40;;;;;;5035517;28;20238;-85
2021/09/05 00:06:43;;;;;;;20.57;12.23;;;11.80;92.50;;;;;;5053395;28;20590;-85
2021/09/05 00:09:09;;;;;;;22.53;12.87;;;11.90;92.50;;;;;;5053185;28;20662;-85
2021/09/05 00:11:35;;;;;;;22.97;12.00;;;11.90;92.50;;;;;;5035930;28;20238;-85
2021/09/05 00:14:01;;;;;;;23.43;12.27;;;11.90;92.50;;;;;;5053160;28;20217;-85
2021/09/05 00:16:26;;;;;;;26.07;12.37;;;11.90;92.40;;;;;;5035368;28;20187;-85
2021/09/05 00:18:52;;;;;;;30.10;12.50;;;11.90;92.30;;;;;;5035292;28;20225;-85
2021/09/05 00:21:18;;;;;;;17.07;12.33;;;11.90;92.30;;;;;;5053060;28;20195;-85
2021/09/05 00:23:43;;;;;;;20.50;11.23;;;11.90;92.30;;;;;;5053400;28;20172;-85
2021/09/05 00:26:09;;;;;;;19.43;11.00;;;11.90;92.30;;;;;;5053109;28;20168;-85
2021/09/05 00:28:35;;;;;;;19.93;12.30;;;11.90;92.20;;;;;;5053144;28;20242;-85
2021/09/05 00:31:01;;;;;;;21.37;11.47;;;11.90;92.20;;;;;;5052823;28;20282;-86
2021/09/05 00:33:27;;;;;;;19.37;11.63;;;12.00;92.20;;;;;;5035056;28;20180;-85
2021/09/05 00:35:53;;;;;;;18.60;10.43;;;11.90;92.20;;;;;;5035204;28;20249;-85
2021/09/05 00:38:19;;;;;;;19.77;11.23;;;11.90;92.30;;;;;;5035053;28;20172;-84
2021/09/05 00:40:45;;;;;;;22.47;10.93;;;11.90;92.30;;;;;;5052885;28;20259;-84
2021/09/05 00:43:10;;;;;;;18.47;10.90;;;11.90;92.20;;;;;;5035030;28;20207;-85
2021/09/05 00:45:36;;;;;;;20.37;11.10;;;11.90;92.10;;;;;;5057148;28;20678;-85
2021/09/05 00:48:01;;;;;;;18.37;10.77;;;11.90;92.10;;;;;;5057082;28;20186;-85
2021/09/05 00:50:28;;;;;;;15.00;9.60;;;11.80;92.00;;;;;;5039131;28;20217;-85
2021/09/05 00:52:55;;;;;;;18.20;10.97;;;11.80;92.00;;;;;;5038141;28;20639;-84
2021/09/05 00:55:21;;;;;;;17.43;10.57;;;11.80;91.90;;;;;;5037629;28;20612;-85
2021/09/05 00:57:47;;;;;;;15.50;10.23;;;11.80;91.90;;;;;;5055497;28;20168;-85
2021/09/05 01:00:14;;;;;;;14.93;9.77;;;11.80;91.90;;;;;;5055710;28;20183;-85
2021/09/05 01:02:40;;;;;;;16.40;10.03;;;11.80;91.80;;;;;;5055324;28;20199;-85
2021/09/05 01:05:06;;;;;;;15.63;9.77;;;11.80;91.70;;;;;;5055267;28;20663;-85
2021/09/05 01:07:33;;;;;;;23.37;9.23;;;11.80;91.70;;;;;;5037371;28;20180;-85
2021/09/05 01:09:59;;;;;;;14.67;9.27;;;11.70;91.70;;;;;;5037406;28;20210;-84
2021/09/05 01:12:26;;;;;;;14.70;8.57;;;11.60;91.90;;;;;;5037325;28;20223;-85
2021/09/05 01:14:52;;;;;;;16.13;9.53;;;11.60;92.00;;;;;;5055257;28;20198;-85
2021/09/05 01:17:18;;;;;;;19.60;10.27;;;11.60;91.90;;;;;;5055406;28;20180;-85
2021/09/05 01:19:44;;;;;;;21.37;10.63;;;11.60;92.00;;;;;;5055095;28;20179;-85
2021/09/05 01:22:10;;;;;;;14.83;10.20;;;11.60;92.20;;;;;;5055014;28;20203;-85
2021/09/05 01:24:35;;;;;;;14.73;9.70;;;11.60;92.00;;;;;;5037188;28;20246;-85
2021/09/05 01:27:01;;;;;;;18.47;9.53;;;11.60;92.20;;;;;;5037142;28;20274;-85
2021/09/05 01:29:27;;;;;;;17.00;10.47;;;11.60;92.10;;;;;;5054961;28;20310;-85
2021/09/05 01:31:55;;;;;;;16.90;9.23;;;11.50;92.00;;;;;;5055014;28;20195;-85
2021/09/05 01:34:24;;;;;;;24.00;9.53;;;11.50;92.10;;;;;;5054829;28;20707;-85
2021/09/05 01:36:51;;;;;;;16.50;9.83;;;11.30;92.10;;;;;;5054890;28;20168;-85
2021/09/05 01:39:18;;;;;;;21.10;10.43;;;11.40;92.30;;;;;;5036886;28;20561;-85
2021/09/05 01:41:45;;;;;;;21.57;9.80;;;11.30;92.40;;;;;;5054898;28;20199;-85
2021/09/05 01:44:13;;;;;;;16.03;9.70;;;11.30;92.50;;;;;;5036902;28;20233;-85
2021/09/05 01:46:39;;;;;;;16.50;9.73;;;11.30;92.50;;;;;;5055270;28;20183;-85
2021/09/05 01:49:06;;;;;;;18.10;11.03;;;11.30;92.50;;;;;;5054594;28;20290;-85
2021/09/05 01:51:32;;;;;;;17.67;9.73;;;11.30;92.60;;;;;;4997452;28;1133840;-85
2021/09/05 01:53:58;;;;;;;18.40;10.23;;;11.40;92.60;;;;;;5056154;28;20291;-85
2021/09/05 01:56:25;;;;;;;18.33;10.17;;;11.40;92.70;;;;;;5055398;28;20786;-84
2021/09/05 01:58:50;;;;;;;21.23;10.23;;;11.40;92.80;;;;;;5055664;28;20251;-85
2021/09/05 02:01:16;;;;;;;20.03;10.13;;;11.30;92.70;;;;;;5037788;28;20353;-85
2021/09/05 02:03:41;;;;;;;15.63;9.03;;;11.30;92.70;;;;;;5055580;28;20183;-85
2021/09/05 02:06:07;;;;;;;17.50;9.07;;;11.30;92.60;;;;;;5055582;28;20179;-85
2021/09/05 02:08:33;;;;;;;17.93;9.60;;;11.20;92.60;;;;;;5037612;28;20257;-85
2021/09/05 02:10:58;;;;;;;15.20;9.03;;;11.20;92.50;;;;;;5055450;28;20235;-85
2021/09/05 02:13:25;;;;;;;18.67;9.97;;;11.20;92.40;;;;;;5037638;28;20176;-85
2021/09/05 02:15:50;;;;;;;16.30;9.63;;;11.10;92.40;;;;;;5055363;28;20172;-85
2021/09/05 02:18:17;;;;;;;13.80;9.10;;;11.10;92.30;;;;;;5055582;28;20169;-85
2021/09/05 02:20:43;;;;;;;21.17;9.77;;;11.10;92.30;;;;;;5037300;28;20184;-85
2021/09/05 02:23:08;;;;;;;16.60;9.73;;;11.20;92.20;;;;;;5055269;28;20233;-85
2021/09/05 02:25:34;;;;;;;17.93;9.17;;;11.20;92.20;;;;;;5037341;28;20211;-85
2021/09/05 02:28:00;;;;;;;23.00;9.50;;;11.20;92.20;;;;;;5055251;28;20183;-85
2021/09/05 02:30:25;;;;;;;17.87;9.20;;;11.20;92.20;;;;;;5037200;28;20207;-85
2021/09/05 02:32:51;;;;;;;18.40;9.10;;;11.10;92.20;;;;;;5037244;28;20234;-85
2021/09/05 02:35:17;;;;;;;14.10;9.00;;;11.10;92.20;;;;;;5055095;28;20172;-85
2021/09/05 02:37:42;;;;;;;12.03;8.63;;;11.10;92.40;;;;;;5055002;28;20280;-85
2021/09/05 02:40:09;;;;;;;14.90;9.67;;;11.10;92.40;;;;;;5037108;28;20279;-85
2021/09/05 02:42:35;;;;;;;15.83;9.73;;;11.10;92.50;;;;;;5037016;28;20576;-84
2021/09/05 02:45:03;;;;;;;11.53;8.73;;;11.00;92.40;;;;;;5037039;28;20192;-85
2021/09/05 02:47:29;;;;;;;14.60;9.33;;;11.00;92.30;;;;;;5036976;28;20203;-84
2021/09/05 02:49:54;;;;;;;14.00;8.80;;;10.90;92.10;;;;;;5036827;28;20204;-84
2021/09/05 02:52:20;;;;;;;14.50;8.63;;;10.80;92.10;;;;;;5054598;28;20208;-85
2021/09/05 02:54:46;;;;;;;15.27;9.03;;;10.90;92.10;;;;;;5054587;28;20208;-84
2021/09/05 02:57:12;;;;;;;15.97;9.70;;;10.80;92.20;;;;;;5054571;28;20259;-85
2021/09/05 02:59:37;;;;;;;18.63;10.37;;;10.90;92.30;;;;;;5036861;28;20183;-85
2021/09/05 03:02:03;;;;;;;24.20;10.67;;;10.80;92.40;;;;;;5036529;28;20196;-85
2021/09/05 03:04:29;;;;;;;20.97;11.20;;;10.80;92.50;;;;;;5054347;28;20255;-85
2021/09/05 03:06:55;;;;;;;21.00;10.83;;;10.90;92.60;;;;;;5035892;28;20213;-85
2021/09/05 03:09:21;;;;;;;14.97;10.23;;;10.80;92.70;;;;;;5054303;28;20195;-85
2021/09/05 03:11:47;;;;;;;24.43;11.70;;;10.80;92.80;;;;;;5054221;28;20188;-85
2021/09/05 03:14:13;;;;;;;14.33;9.03;;;10.90;92.90;;;;;;5036375;28;20176;-84
2021/09/05 03:16:39;;;;;;;15.93;10.03;;;10.90;92.90;;;;;;5036418;28;20180;-85
2021/09/05 03:19:04;;;;;;;21.07;10.63;;;10.80;92.90;;;;;;5036462;28;20168;-85
2021/09/05 03:21:30;;;;;;;15.93;9.83;;;10.80;92.90;;;;;;5036309;28;20656;-84
2021/09/05 03:23:56;;;;;;;15.60;10.23;;;10.80;92.90;;;;;;5054078;28;20222;-84
2021/09/05 03:26:21;;;;;;;22.63;10.47;;;10.80;92.90;;;;;;5054036;28;20278;-85
2021/09/05 03:28:47;;;;;;;15.17;10.03;;;10.70;93.00;;;;;;5054015;28;20169;-85
2021/09/05 03:31:13;;;;;;;18.00;10.20;;;10.70;93.10;;;;;;5036173;28;20208;-84
2021/09/05 03:33:38;;;;;;;28.10;12.10;;;10.70;93.20;;;;;;5053905;28;20179;-85
2021/09/05 03:36:04;;;;;;;19.83;11.50;;;10.70;93.30;;;;;;5036046;28;20171;-84
2021/09/05 03:38:30;;;;;;;25.10;10.40;;;10.70;93.30;;;;;;5053828;28;20171;-84
2021/09/05 03:40:56;;;;;;;20.63;10.17;;;10.80;93.30;;;;;;5053799;28;20218;-85
2021/09/05 03:43:22;;;;;;;14.60;9.80;;;10.70;93.20;;;;;;5036063;28;20203;-84
2021/09/05 03:45:47;;;;;;;13.50;10.30;;;10.70;93.20;;;;;;5035839;28;20204;-84
2021/09/05 03:48:13;;;;;;;13.00;10.00;;;10.70;93.20;;;;;;5035687;28;20599;-84
2021/09/05 03:50:39;;;;;;;16.37;9.70;;;10.60;93.10;;;;;;5053570;28;20746;-84
2021/09/05 03:53:05;;;;;;;17.97;10.83;;;10.60;93.00;;;;;;5053442;28;20283;-84
2021/09/05 03:55:30;;;;;;;21.93;10.30;;;10.50;93.00;;;;;;5053546;28;20651;-84
2021/09/05 03:57:56;;;;;;;13.57;9.30;;;10.50;93.00;;;;;;5035651;28;20263;-85
2021/09/05 04:00:22;;;;;;;15.33;10.10;;;10.50;93.00;;;;;;5035673;28;20176;-85
2021/09/05 04:02:47;;;;;;;14.60;9.63;;;10.40;93.00;;;;;;5053405;28;20191;-84
2021/09/05 04:05:13;;;;;;;18.10;10.03;;;10.50;93.10;;;;;;5053622;28;20179;-84
2021/09/05 04:07:43;;;;;;;20.20;9.57;;;10.40;93.00;;;;;;5035550;28;20184;-85
2021/09/05 04:10:09;;;;;;;14.63;10.30;;;10.30;92.90;;;;;;5053169;28;20286;-84
2021/09/05 04:12:44;;;;;;;26.43;9.67;;;10.30;92.90;;;;;;5035823;28;20302;-84
2021/09/05 04:15:10;;;;;;;15.53;9.20;;;10.30;92.80;;;;;;5035439;28;20175;-84
2021/09/05 04:17:37;;;;;;;15.50;9.60;;;10.30;92.70;;;;;;5053401;28;20620;-85
2021/09/05 04:20:04;;;;;;;14.77;8.43;;;10.20;92.60;;;;;;5035269;28;20184;-84
2021/09/05 04:22:32;;;;;;;16.67;9.23;;;10.20;92.60;;;;;;5052941;28;20286;-85
2021/09/05 04:24:58;;;;;;;14.77;8.87;;;10.10;92.60;;;;;;5053026;28;20250;-85
2021/09/05 04:27:24;;;;;;;15.40;9.47;;;10.10;92.70;;;;;;5035186;28;20219;-84
2021/09/05 04:29:49;;;;;;;14.57;9.70;;;10.10;92.70;;;;;;5053311;28;20235;-84
2021/09/05 04:32:17;;;;;;;20.47;9.30;;;10.00;92.80;;;;;;5035067;28;20218;-84
2021/09/05 04:34:43;;;;;;;16.50;9.07;;;10.00;92.70;;;;;;5035142;28;20172;-84
2021/09/05 04:37:08;;;;;;;14.87;9.57;;;9.90;92.70;;;;;;5053071;28;20172;-84
2021/09/05 04:39:34;;;;;;;20.63;9.80;;;9.80;92.80;;;;;;5052929;28;20175;-84
2021/09/05 04:42:00;;;;;;;15.07;9.13;;;9.90;92.90;;;;;;5053028;28;20199;-85
2021/09/05 04:44:26;;;;;;;17.87;10.33;;;9.90;93.00;;;;;;5035121;28;20182;-84
2021/09/05 04:46:51;;;;;;;17.47;10.27;;;9.90;93.00;;;;;;5052982;28;20375;-84
2021/09/05 04:49:17;;;;;;;14.13;9.50;;;9.90;93.00;;;;;;5052822;28;20207;-85
2021/09/05 04:51:43;;;;;;;21.40;10.67;;;9.90;93.10;;;;;;5052742;28;20203;-84
2021/09/05 04:54:08;;;;;;;22.93;11.37;;;10.00;93.00;;;;;;5035000;28;20249;-85
2021/09/05 04:56:34;;;;;;;20.10;11.10;;;9.90;93.00;;;;;;5052842;28;20522;-84
2021/09/05 04:59:00;;;;;;;18.07;10.53;;;9.90;93.00;;;;;;5052913;28;20298;-84
2021/09/05 05:01:25;;;;;;;22.27;12.50;;;9.90;93.00;;;;;;5053118;28;20566;-84
2021/09/05 05:03:51;;;;;;;23.10;10.80;;;10.00;93.00;;;;;;5035091;28;20187;-85
2021/09/05 05:06:17;;;;;;;21.33;11.87;;;10.10;93.00;;;;;;5035446;28;20254;-85
2021/09/05 05:08:42;;;;;;;17.27;11.43;;;10.10;92.90;;;;;;5035341;28;20187;-84
2021/09/05 05:11:13;;;;;;;15.43;10.40;;;10.20;93.00;;;;;;5052747;28;20226;-84
2021/09/05 05:13:39;;;;;;;25.27;12.17;;;10.20;93.00;;;;;;5034904;28;20275;-84
2021/09/05 05:16:04;;;;;;;18.53;10.60;;;10.30;93.10;;;;;;5052949;28;20200;-84
2021/09/05 05:18:30;;;;;;;14.83;10.47;;;10.30;93.10;;;;;;5052735;28;20631;-85
2021/09/05 05:20:55;;;;;;;16.23;10.07;;;10.30;93.00;;;;;;5035271;28;20181;-85
2021/09/05 05:23:21;;;;;;;20.63;9.70;;;10.30;93.00;;;;;;5035268;28;20176;-85
2021/09/05 05:25:47;;;;;;;18.07;11.00;;;10.30;93.00;;;;;;5035053;28;20176;-85
2021/09/05 05:28:12;;;;;;;15.37;9.70;;;10.30;93.00;;;;;;5053542;28;20234;-85
2021/09/05 05:30:38;;;;;;;19.73;10.53;;;10.40;93.00;;;;;;5055206;28;20567;-84
2021/09/05 05:33:04;;;;;;;23.87;10.40;;;10.40;93.10;;;;;;5056482;28;20194;-85
2021/09/05 05:35:29;;;;;;;20.93;10.43;;;10.50;93.20;;;;;;5038894;28;20191;-85
2021/09/05 05:37:55;;;;;;;16.97;9.87;;;10.60;93.30;;;;;;5056263;28;20226;-85
2021/09/05 05:40:23;;;;;;;17.13;9.63;;;10.70;93.40;;;;;;5056418;28;20609;-84
2021/09/05 05:42:49;;;;;;;19.53;10.03;;;10.80;93.50;;;;;;5038109;28;20705;-84
2021/09/05 05:45:18;;;;;;;14.60;9.17;;;10.90;93.60;;;;;;5038242;28;20204;-85
2021/09/05 05:47:45;;;;;;;20.17;9.17;;;11.00;93.60;;;;;;5056070;28;20545;-84
2021/09/05 05:50:10;;;;;;;15.30;8.43;;;11.20;93.60;;;;;;5037995;28;20290;-84
2021/09/05 05:52:37;;;;;;;16.83;9.03;;;11.20;93.60;;;;;;5055754;28;20270;-83
2021/09/05 05:55:03;;;;;;;13.70;7.90;;;11.40;93.50;;;;;;5055941;28;20176;-83
2021/09/05 05:57:29;;;;;;;17.07;8.50;;;11.50;93.40;;;;;;5055744;28;20208;-84
2021/09/05 05:59:54;;;;;;;15.50;7.93;;;11.60;93.40;;;;;;5037958;28;20210;-84
2021/09/05 06:02:20;;;;;;;16.97;9.13;;;11.70;93.20;;;;;;5037928;28;20195;-84
2021/09/05 06:04:46;;;;;;;11.33;7.63;;;11.80;92.90;;;;;;5055880;28;20180;-84
2021/09/05 06:07:12;;;;;;;11.87;8.07;;;11.90;92.80;;;;;;5037791;28;20178;-84
2021/09/05 06:09:41;;;;;;;12.00;7.50;;;11.90;92.70;;;;;;5037633;28;20298;-84
2021/09/05 06:12:08;;;;;;;12.80;7.40;;;12.10;92.70;;;;;;5055506;28;20184;-84
2021/09/05 06:14:34;;;;;;;12.13;6.57;;;12.10;92.60;;;;;;5055496;28;20171;-84
2021/09/05 06:17:00;;;;;;;12.47;7.40;;;12.20;92.50;;;;;;5055492;28;20635;-84
2021/09/05 06:19:26;;;;;;;12.57;6.30;;;12.20;92.50;;;;;;5055472;28;20191;-85
2021/09/05 06:21:51;;;;;;;13.30;6.67;;;12.30;92.40;;;;;;5055231;28;20196;-84
2021/09/05 06:24:17;;;;;;;12.43;6.30;;;12.40;92.10;;;;;;5055325;28;20583;-84
2021/09/05 06:26:43;;;;;;;8.77;5.60;;;12.40;91.80;;;;;;5037417;28;20675;-84
2021/09/05 06:29:09;;;;;;;8.33;5.30;;;12.50;91.60;;;;;;5037379;28;20175;-85
2021/09/05 06:31:36;;;;;;;13.53;5.97;;;12.50;91.60;;;;;;5037295;28;20204;-85
2021/09/05 06:34:02;;;;;;;8.13;5.33;;;12.60;91.70;;;;;;5037474;28;20172;-85
2021/09/05 06:36:27;;;;;;;14.37;5.40;;;12.60;90.80;;;;;;5037694;28;20640;-85
2021/09/05 06:38:53;;;;;;;14.03;5.97;;;12.70;91.00;;;;;;5037363;28;20230;-85
2021/09/05 06:41:19;;;;;;;14.83;5.87;;;12.80;90.90;;;;;;5053881;28;20210;-85
2021/09/05 06:43:45;;;;;;;8.63;5.60;;;12.80;90.80;;;;;;5055223;28;20175;-84
2021/09/05 06:46:12;;;;;;;8.93;4.30;;;12.80;90.10;;;;;;5055001;28;20236;-85
2021/09/05 06:48:38;;;;;;;12.27;5.53;;;12.90;89.80;;;;;;5055017;28;20168;-85
2021/09/05 06:51:03;;;;;;;6.43;4.80;;;13.00;90.00;;;;;;5054656;28;20262;-85
2021/09/05 06:53:29;;;;;;;6.73;4.90;;;13.00;89.30;;;;;;5037147;28;20540;-84
2021/09/05 06:55:55;;;;;;;9.83;4.90;;;13.10;89.40;;;;;;5054700;28;20636;-84
2021/09/05 06:58:20;;;;;;;8.07;4.87;;;13.20;89.60;;;;;;5054661;28;20164;-84
2021/09/05 07:00:46;;;;;;;8.40;4.50;;;13.20;88.80;;;;;;5036728;28;20648;-85
2021/09/05 07:03:12;;;;;;;8.03;3.90;;;13.20;88.70;;;;;;5054808;28;20179;-84
2021/09/05 07:05:38;;;;;;;10.33;4.53;;;13.20;88.10;;;;;;5054538;28;20172;-84
2021/09/05 07:08:04;;;;;;;5.93;3.97;;;13.30;88.20;;;;;;5054516;28;20679;-84
2021/09/05 07:10:30;;;;;;;5.33;3.60;;;13.30;88.50;;;;;;5036780;28;20692;-84
2021/09/05 07:12:55;;;;;;;9.87;4.73;;;13.40;88.30;;;;;;5036435;28;20196;-84
2021/09/05 07:15:21;;;;;;;5.33;4.00;;;13.60;88.30;;;;;;5036688;28;20253;-84
2021/09/05 07:17:47;;;;;;;7.53;4.20;;;13.70;88.00;;;;;;5036778;28;20176;-85
2021/09/05 07:20:12;;;;;;;4.83;3.57;;;13.70;87.10;;;;;;5054431;28;20664;-85
2021/09/05 07:22:38;;;;;;;7.90;3.63;;;13.70;86.10;;;;;;5054443;28;20204;-85
2021/09/05 07:25:04;;;;;;;9.97;4.30;;;13.70;86.30;;;;;;5036722;28;20180;-84
2021/09/05 07:27:30;;;;;;;6.00;4.20;;;13.70;85.90;;;;;;5036318;28;20644;-85
2021/09/05 07:29:56;;;;;;;7.37;3.67;;;13.80;85.70;;;;;;5054509;28;20196;-85
2021/09/05 07:32:21;;;;;;;7.20;3.80;;;13.80;85.60;;;;;;5036318;28;20312;-86
2021/09/05 07:34:48;;;;;;;7.50;3.87;;;13.90;85.60;;;;;;5054403;28;20173;-84
2021/09/05 07:37:14;;;;;;;8.97;3.93;;;13.90;85.80;;;;;;5054581;28;20241;-84
2021/09/05 07:39:40;;;;;;;8.13;4.20;;;14.00;85.20;;;;;;5054433;28;20684;-85
2021/09/05 07:42:06;;;;;;;6.43;3.70;;;14.10;85.10;;;;;;5053943;28;20192;-84
2021/09/05 07:44:32;;;;;;;6.27;4.10;;;14.20;84.60;;;;;;5053865;28;20318;-85
2021/09/05 07:46:59;;;;;;;14.40;4.97;;;14.20;83.40;;;;;;5054233;28;20176;-85
2021/09/05 07:49:25;;;;;;;6.10;3.40;;;14.20;83.50;;;;;;5035970;28;20200;-85
2021/09/05 07:51:51;;;;;;;5.50;3.70;;;14.20;83.10;;;;;;5053854;28;20290;-85
2021/09/05 07:54:17;;;;;;;8.97;4.10;;;14.30;83.50;;;;;;5053639;28;20573;-85
2021/09/05 07:56:42;;;;;;;5.17;3.50;;;14.30;83.80;;;;;;5054136;28;20263;-86
2021/09/05 07:59:08;;;;;;;24.07;13.43;;;14.40;83.30;;;;;;5055757;28;20199;-85
2021/09/05 08:01:33;;;;;;;6.03;3.30;;;14.50;81.90;;;;;;5037529;28;20218;-85
2021/09/05 08:03:59;;;;;;;7.50;3.50;;;14.50;82.40;;;;;;5038021;28;20179;-84
2021/09/05 08:06:26;;;;;;;7.27;3.47;;;14.60;80.90;;;;;;5053507;28;20179;-85
2021/09/05 08:08:52;;;;;;;5.70;3.57;;;14.70;81.20;;;;;;5055134;28;20225;-85
2021/09/05 08:11:18;;;;;;;6.50;3.77;;;14.70;80.00;;;;;;5037617;28;20211;-85
2021/09/05 08:13:44;;;;;;;5.70;3.70;;;14.80;80.60;;;;;;5037208;28;20645;-85
2021/09/05 08:16:10;;;;;;;6.37;4.03;;;14.90;79.70;;;;;;5054546;28;20174;-84
2021/09/05 08:18:37;;;;;;;8.40;3.47;;;15.00;79.60;;;;;;5036021;28;20318;-85
2021/09/05 08:21:04;;;;;;;9.90;4.43;;;15.10;78.60;;;;;;5036021;28;20180;-85
2021/09/05 08:23:30;;;;;;;5.00;3.30;;;15.10;79.30;;;;;;5055337;28;20187;-86
2021/09/05 08:25:55;;;;;;;7.97;3.10;;;15.20;79.60;;;;;;5038396;28;20192;-85
2021/09/05 08:28:21;;;;;;;8.67;4.07;;;15.30;78.10;;;;;;5055935;28;20183;-85
2021/09/05 08:30:48;;;;;;;5.40;3.33;;;15.30;77.50;;;;;;5054385;28;20562;-86
2021/09/05 08:33:17;;;;;;;7.77;4.00;;;15.30;77.40;;;;;;5054284;28;20175;-86
2021/09/05 08:35:46;;;;;;;8.70;3.80;;;15.30;77.90;;;;;;5054732;28;20168;-85
2021/09/05 08:38:13;;;;;;;5.20;3.03;;;15.40;77.80;;;;;;5055697;28;20214;-87
2021/09/05 08:40:45;;;;;;;5.77;3.40;;;15.40;77.40;;;;;;5037869;28;20187;-85
2021/09/05 08:43:12;;;;;;;4.85;3.50;;;15.50;77.20;;;;;;5055127;28;20246;-87
2021/09/05 08:45:38;;;;;;;4.43;3.33;;;15.60;77.00;;;;;;5054970;28;20187;-85
2021/09/05 08:48:06;;;;;;;6.07;3.37;;;15.70;77.40;;;;;;5037140;28;20180;-87
2021/09/05 08:50:32;;;;;;;5.93;3.57;;;15.70;76.00;;;;;;5054953;28;20568;-84
2021/09/05 08:52:59;;;;;;;5.72;3.40;;;15.80;77.20;;;;;;5053822;28;20215;-84
2021/09/05 08:55:25;;;;;;;6.63;3.63;;;15.80;75.10;;;;;;5053524;28;20176;-85
2021/09/05 08:57:51;;;;;;;17.70;4.20;;;15.90;76.70;;;;;;5054433;28;20176;-85
2021/09/05 09:00:17;;;;;;;6.75;3.42;;;15.90;75.90;;;;;;5054247;28;20179;-85
2021/09/05 09:02:50;;;;;;;5.80;3.58;;;15.90;75.30;;;;;;5053276;28;20221;-85
2021/09/05 09:05:32;;;;;;;4.03;3.40;;;16.00;74.70;;;;;;5054601;28;20569;-85
2021/09/05 09:08:00;;;;;;;8.88;3.72;;;16.00;74.40;;;;;;5057186;28;20164;-85
2021/09/05 09:10:25;;;;;;;8.52;3.35;;;16.20;76.40;;;;;;5056788;28;20561;-85
2021/09/05 09:12:51;;;;;;;6.65;3.83;;;16.30;75.00;;;;;;5056911;28;20203;-85
2021/09/05 09:15:18;;;;;;;11.38;4.05;;;16.30;75.20;;;;;;5056788;28;20203;-85
2021/09/05 09:17:44;;;;;;;6.63;3.72;;;16.30;73.60;;;;;;5056934;28;20168;-85
2021/09/05 09:20:10;;;;;;;8.23;3.58;;;16.40;74.90;;;;;;5056743;28;20198;-86
2021/09/05 09:22:36;;;;;;;6.63;3.42;;;16.60;76.50;;;;;;5038758;28;20200;-85
2021/09/05 09:25:02;;;;;;;9.52;3.50;;;16.70;74.50;;;;;;5056913;28;20175;-86
2021/09/05 09:27:28;;;;;;;6.07;4.00;;;16.60;73.90;;;;;;5038954;28;20183;-86
2021/09/05 09:29:56;;;;;;;9.38;3.95;;;16.70;73.90;;;;;;5056475;28;20676;-86
2021/09/05 09:32:26;;;;;;;7.53;3.95;;;16.70;73.80;;;;;;5056407;28;20192;-86
2021/09/05 09:34:53;;;;;;;6.65;4.00;;;16.80;73.30;;;;;;5056615;28;20176;-85
2021/09/05 09:37:21;;;;;;;5.25;3.70;;;17.00;73.00;;;;;;5056282;28;20734;-85
2021/09/05 09:39:47;;;;;;;8.52;3.80;;;17.00;71.70;;;;;;5038353;28;20184;-85
2021/09/05 09:42:48;;;;;;;10.75;3.80;;;17.10;72.50;;;;;;5038206;28;20282;-86
2021/09/05 09:45:16;;;;;;;9.45;4.07;;;17.20;72.30;;;;;;4975597;28;20270;-86
2021/09/05 09:47:46;;;;;;;4.20;3.50;;;17.30;73.10;;;;;;5040796;28;20238;-85
2021/09/05 09:50:13;;;;;;;7.60;3.42;;;17.50;72.40;;;;;;5038646;28;20207;-87
2021/09/05 09:52:40;;;;;;;7.30;4.18;;;17.50;71.30;;;;;;5038405;28;20261;-86
2021/09/05 09:55:06;;;;;;;9.68;3.97;;;17.60;72.80;;;;;;5056636;28;20165;-85
2021/09/05 09:57:33;;;;;;;9.15;4.10;;;17.60;71.80;;;;;;5039055;28;20254;-86
2021/09/05 10:00:00;;;;;;;5.50;3.80;;;17.50;71.20;;;;;;5055913;28;20176;-85
2021/09/05 10:02:26;;;;;;;12.82;4.78;;;17.60;70.90;;;;;;5055670;28;20188;-86
2021/09/05 10:04:54;;;;;;;6.00;3.63;;;17.70;72.10;;;;;;5055953;28;20172;-86
2021/09/05 10:07:23;;;;;;;8.23;4.03;;;17.80;71.00;;;;;;5055953;28;20203;-86
2021/09/05 10:09:50;;;;;;;5.63;3.75;;;17.90;71.10;;;;;;5041404;28;20200;-85
2021/09/05 10:12:17;;;;;;;8.90;4.13;;;17.80;69.60;;;;;;5037906;28;20192;-85
2021/09/05 10:14:49;;;;;;;8.52;4.65;;;17.90;71.20;;;;;;5055764;28;20165;-85
2021/09/05 10:17:16;;;;;;;7.45;4.22;;;17.90;69.20;;;;;;5037471;28;20624;-85
2021/09/05 10:19:42;;;;;;;8.73;4.18;;;18.00;71.60;;;;;;5055772;28;20313;-85
2021/09/05 10:22:08;;;;;;;7.28;3.80;;;18.10;70.40;;;;;;5037507;28;20699;-85
2021/09/05 10:24:48;;;;;;;6.38;4.43;;;18.20;69.90;;;;;;5037463;28;20184;-84
2021/09/05 10:27:15;;;;;;;7.80;4.45;;;18.30;68.90;;;;;;5055427;28;20160;-84
2021/09/05 10:30:09;;;;;;;6.35;4.13;;;18.30;69.90;;;;;;5055588;28;20718;-84
2021/09/05 10:32:56;;;;;;;9.23;4.10;;;18.30;68.00;;;;;;5037335;28;20203;-84
2021/09/05 10:35:30;;;;;;;6.38;4.15;;;18.50;68.90;;;;;;5055197;28;20183;-85
2021/09/05 10:38:08;;;;;;;9.20;4.05;;;18.70;68.00;;;;;;5055740;28;20217;-85
2021/09/05 10:40:48;;;;;;;7.80;3.80;;;18.60;67.40;;;;;;5055021;28;20226;-85
2021/09/05 10:43:15;;;;;;;7.80;4.13;;;18.70;68.00;;;;;;5055068;28;20239;-85
2021/09/05 10:45:47;;;;;;;11.57;4.55;;;18.70;66.50;;;;;;5055098;28;20172;-85
2021/09/05 10:48:32;;;;;;;6.07;4.15;;;18.80;67.90;;;;;;5037328;28;20184;-86
2021/09/05 10:51:12;;;;;;;10.70;4.38;;;18.90;67.70;;;;;;5036977;28;20253;-84
2021/09/05 10:53:54;;;;;;;6.07;4.20;;;19.10;67.30;;;;;;5037025;28;20172;-85
2021/09/05 10:56:31;;;;;;;7.53;4.43;;;19.20;66.30;;;;;;5054793;28;20174;-85
2021/09/05 10:59:00;;;;;;;6.78;4.43;;;19.10;67.00;;;;;;5036826;28;20206;-84
2021/09/05 11:01:31;;;;;;;6.03;4.38;;;19.00;65.80;;;;;;5054622;28;20192;-85
2021/09/05 11:04:12;;;;;;;9.32;4.68;;;19.00;66.40;;;;;;5037052;28;20172;-86
2021/09/05 11:06:43;;;;;;;13.90;4.72;;;19.10;66.80;;;;;;5036747;28;20186;-84
2021/09/05 11:09:24;;;;;;;12.10;4.65;;;19.20;67.30;;;;;;5036797;28;20172;-84
2021/09/05 11:12:07;;;;;;;13.50;4.80;;;19.20;66.80;;;;;;5054478;28;20261;-84
2021/09/05 11:14:36;;;;;;;8.80;4.82;;;19.20;64.50;;;;;;5054721;28;20152;-85
2021/09/05 11:17:07;;;;;;;10.23;5.10;;;19.20;65.60;;;;;;5036463;28;20594;-85
2021/09/05 11:19:42;;;;;;;7.45;4.50;;;19.50;65.10;;;;;;5036777;28;20172;-86
2021/09/05 11:22:10;;;;;;;6.85;5.05;;;19.60;65.60;;;;;;5036536;28;20199;-86
2021/09/05 11:24:36;;;;;;;9.27;4.30;;;19.70;65.50;;;;;;5054333;28;20175;-86
2021/09/05 11:27:03;;;;;;;10.70;4.55;;;19.70;64.80;;;;;;5053991;28;20177;-85
2021/09/05 11:29:29;;;;;;;8.60;5.00;;;19.70;65.00;;;;;;5036471;28;20234;-85
2021/09/05 11:32:07;;;;;;;7.90;4.80;;;19.20;64.50;;;;;;5036259;28;20188;-85
2021/09/05 11:34:33;;;;;;;7.90;5.20;;;19.20;67.50;;;;;;5054147;28;20226;-85
2021/09/05 11:37:00;;;;;;;8.10;4.88;;;19.50;65.60;;;;;;5053944;28;20590;-86
2021/09/05 11:39:26;;;;;;;8.93;4.90;;;19.50;64.70;;;;;;5054100;28;20199;-86
2021/09/05 11:41:59;;;;;;;11.40;5.13;;;19.60;65.20;;;;;;5053904;28;20234;-86
2021/09/05 11:44:34;;;;;;;11.60;5.32;;;19.50;64.50;;;;;;5037716;28;20225;-85
2021/09/05 11:47:18;;;;;;;9.18;5.78;;;19.20;64.40;;;;;;5056643;28;20217;-85
2021/09/05 11:49:52;;;;;;;6.00;4.25;;;19.20;64.90;;;;;;5038487;28;20195;-85
2021/09/05 11:52:31;;;;;;;8.32;5.28;;;19.50;65.60;;;;;;5056498;28;20203;-85
2021/09/05 11:55:26;;;;;;;8.15;5.25;;;19.90;66.30;;;;;;5056538;28;20157;-86
2021/09/05 11:58:06;;;;;;;9.25;4.93;;;20.20;64.00;;;;;;5039010;28;20186;-86
2021/09/05 12:00:37;;;;;;;8.73;5.07;;;20.30;62.80;;;;;;5055940;28;20152;-85
2021/09/05 12:03:05;;;;;;;10.85;5.15;;;20.20;62.40;;;;;;5037610;28;20199;-87
2021/09/05 12:05:31;;;;;;;9.30;5.18;;;20.20;61.10;;;;;;5055919;28;20168;-84
2021/09/05 12:07:57;;;;;;;9.40;5.18;;;20.50;63.70;;;;;;5037796;28;20176;-85
2021/09/05 12:10:27;;;;;;;10.63;5.18;;;20.60;60.60;;;;;;5055147;28;20238;-85
2021/09/05 12:13:13;;;;;;;11.98;4.40;;;20.60;59.00;;;;;;5053483;28;20188;-85
2021/09/05 12:15:46;;;;;;;9.25;5.15;;;20.30;62.30;;;;;;5054713;28;20235;-86
2021/09/05 12:18:19;;;;;;;7.57;4.35;;;20.50;63.00;;;;;;5055210;28;20157;-85
2021/09/05 12:20:51;;;;;;;7.85;4.93;;;20.80;60.00;;;;;;5036327;28;20180;-85
2021/09/05 12:23:18;;;;;;;8.50;4.80;;;20.90;59.00;;;;;;5053395;28;20176;-85
2021/09/05 12:25:44;;;;;;;11.05;4.93;;;21.10;59.30;;;;;;5035314;28;20176;-85
2021/09/05 12:28:10;;;;;;;9.35;5.22;;;20.80;58.90;;;;;;5035866;28;20228;-85
2021/09/05 12:30:52;;;;;;;11.35;5.60;;;20.50;59.80;;;;;;5056652;28;20203;-86
2021/09/05 12:33:29;;;;;;;7.93;4.60;;;20.30;61.10;;;;;;5056223;28;20245;-84
2021/09/05 12:36:05;;;;;;;6.57;4.40;;;20.70;60.90;;;;;;5055253;28;20492;-86
2021/09/05 12:38:33;;;;;;;5.53;4.28;;;20.90;58.10;;;;;;5055481;28;20183;-86
2021/09/05 12:41:11;;;;;;;5.95;4.40;;;20.70;58.00;;;;;;5036742;28;20598;-86